sensor_id;sensor_type;location;lat;lon;timestamp;P1;durP1;ratioP1;P2;durP2;ratioP2
7295;SDS011;40758;54.038;11.684;2024-02-14T00:01:06;11.20;;;5.00;;
7295;SDS011;40758;54.038;11.684;2024-02-14T00:03:36;11.18;;;4.53;;
7295;SDS011;40758;54.038;11.684;2024-02-14T00:06:05;11.05;;;3.63;;
7295;SDS011;40758;54.038;11.684;2024-02-14T00:08:32;11.13;;;7.25;;
7295;SDS011;40758;54.038;11.684;2024-02-14T00:10:59;9.38;;;4.03;;
7295;SDS011;40758;54.038;11.684;2024-02-14T00:13:26;7.40;;;2.92;;
7295;SDS011;40758;54.038;11.684;2024-02-14T00:15:53;10.23;;;4.25;;
7295;SDS011;40758;54.038;11.684;2024-02-14T00:18:20;8.00;;;4.57;;
7295;SDS011;40758;54.038;11.684;2024-02-14T00:20:49;10.18;;;7.38;;
7295;SDS011;40758;54.038;11.684;2024-02-14T00:23:16;11.98;;;4.43;;
7295;SDS011;40758;54.038;11.684;2024-02-14T00:25:42;8.05;;;3.50;;
7295;SDS011;40758;54.038;11.684;2024-02-14T00:28:09;7.57;;;3.95;;
7295;SDS011;40758;54.038;11.684;2024-02-14T00:30:36;11.50;;;7.38;;
7295;SDS011;40758;54.038;11.684;2024-02-14T00:33:04;10.02;;;4.10;;
7295;SDS011;40758;54.038;11.684;2024-02-14T00:35:31;6.88;;;3.13;;
7295;SDS011;40758;54.038;11.684;2024-02-14T00:38:00;7.45;;;3.90;;
7295;SDS011;40758;54.038;11.684;2024-02-14T00:40:28;11.38;;;3.58;;
7295;SDS011;40758;54.038;11.684;2024-02-14T00:42:55;3.50;;;1.77;;
7295;SDS011;40758;54.038;11.684;2024-02-14T00:45:21;7.93;;;2.53;;
7295;SDS011;40758;54.038;11.684;2024-02-14T00:47:48;8.52;;;3.10;;
7295;SDS011;40758;54.038;11.684;2024-02-14T00:50:15;7.10;;;3.58;;
7295;SDS011;40758;54.038;11.684;2024-02-14T00:52:41;6.32;;;2.92;;
7295;SDS011;40758;54.038;11.684;2024-02-14T00:55:09;9.75;;;3.85;;
7295;SDS011;40758;54.038;11.684;2024-02-14T00:57:36;9.45;;;7.72;;
7295;SDS011;40758;54.038;11.684;2024-02-14T01:00:03;8.50;;;4.38;;
7295;SDS011;40758;54.038;11.684;2024-02-14T01:02:32;10.18;;;4.20;;
7295;SDS011;40758;54.038;11.684;2024-02-14T01:04:59;12.68;;;4.10;;
7295;SDS011;40758;54.038;11.684;2024-02-14T01:07:26;10.20;;;4.38;;
7295;SDS011;40758;54.038;11.684;2024-02-14T01:09:52;9.10;;;3.70;;
7295;SDS011;40758;54.038;11.684;2024-02-14T01:12:19;5.90;;;2.92;;
7295;SDS011;40758;54.038;11.684;2024-02-14T01:14:46;8.88;;;2.80;;
7295;SDS011;40758;54.038;11.684;2024-02-14T01:17:13;11.95;;;6.15;;
7295;SDS011;40758;54.038;11.684;2024-02-14T01:19:41;8.57;;;4.05;;
7295;SDS011;40758;54.038;11.684;2024-02-14T01:22:08;6.45;;;3.58;;
7295;SDS011;40758;54.038;11.684;2024-02-14T01:24:35;9.70;;;3.60;;
7295;SDS011;40758;54.038;11.684;2024-02-14T01:27:03;6.72;;;3.65;;
7295;SDS011;40758;54.038;11.684;2024-02-14T01:32:00;3.20;;;1.00;;
7295;SDS011;40758;54.038;11.684;2024-02-14T01:34:28;2.83;;;1.27;;
7295;SDS011;40758;54.038;11.684;2024-02-14T01:36:55;7.47;;;3.25;;
7295;SDS011;40758;54.038;11.684;2024-02-14T01:39:23;9.48;;;3.30;;
7295;SDS011;40758;54.038;11.684;2024-02-14T01:41:49;4.50;;;2.33;;
7295;SDS011;40758;54.038;11.684;2024-02-14T01:44:16;6.20;;;3.00;;
7295;SDS011;40758;54.038;11.684;2024-02-14T01:46:44;5.60;;;2.78;;
7295;SDS011;40758;54.038;11.684;2024-02-14T01:49:11;6.13;;;2.88;;
7295;SDS011;40758;54.038;11.684;2024-02-14T01:51:39;6.25;;;2.63;;
7295;SDS011;40758;54.038;11.684;2024-02-14T01:54:08;7.90;;;5.68;;
7295;SDS011;40758;54.038;11.684;2024-02-14T01:56:37;5.93;;;2.35;;
7295;SDS011;40758;54.038;11.684;2024-02-14T01:59:05;7.50;;;2.92;;
7295;SDS011;40758;54.038;11.684;2024-02-14T02:01:34;8.02;;;3.15;;
7295;SDS011;40758;54.038;11.684;2024-02-14T02:04:00;5.45;;;2.47;;
7295;SDS011;40758;54.038;11.684;2024-02-14T02:06:28;4.55;;;1.58;;
7295;SDS011;40758;54.038;11.684;2024-02-14T02:08:55;6.07;;;2.75;;
7295;SDS011;40758;54.038;11.684;2024-02-14T02:11:22;7.15;;;2.88;;
7295;SDS011;40758;54.038;11.684;2024-02-14T02:13:49;3.47;;;2.50;;
7295;SDS011;40758;54.038;11.684;2024-02-14T02:16:15;9.77;;;6.13;;
7295;SDS011;40758;54.038;11.684;2024-02-14T02:18:42;5.13;;;2.83;;
7295;SDS011;40758;54.038;11.684;2024-02-14T02:21:08;7.30;;;2.72;;
7295;SDS011;40758;54.038;11.684;2024-02-14T02:23:35;5.82;;;2.88;;
7295;SDS011;40758;54.038;11.684;2024-02-14T02:26:02;6.03;;;5.43;;
7295;SDS011;40758;54.038;11.684;2024-02-14T02:28:29;6.07;;;2.33;;
7295;SDS011;40758;54.038;11.684;2024-02-14T02:30:55;4.65;;;2.22;;
7295;SDS011;40758;54.038;11.684;2024-02-14T02:33:22;6.25;;;3.00;;
7295;SDS011;40758;54.038;11.684;2024-02-14T02:35:49;4.97;;;1.92;;
7295;SDS011;40758;54.038;11.684;2024-02-14T02:38:16;5.25;;;3.22;;
7295;SDS011;40758;54.038;11.684;2024-02-14T02:40:43;6.82;;;2.70;;
7295;SDS011;40758;54.038;11.684;2024-02-14T02:43:10;7.25;;;2.58;;
7295;SDS011;40758;54.038;11.684;2024-02-14T02:45:37;5.05;;;2.70;;
7295;SDS011;40758;54.038;11.684;2024-02-14T02:48:05;6.82;;;4.75;;
7295;SDS011;40758;54.038;11.684;2024-02-14T02:50:32;6.13;;;2.55;;
7295;SDS011;40758;54.038;11.684;2024-02-14T02:52:59;3.17;;;1.50;;
7295;SDS011;40758;54.038;11.684;2024-02-14T02:55:25;8.25;;;3.00;;
7295;SDS011;40758;54.038;11.684;2024-02-14T02:57:53;5.65;;;2.20;;
7295;SDS011;40758;54.038;11.684;2024-02-14T03:00:22;5.80;;;2.67;;
7295;SDS011;40758;54.038;11.684;2024-02-14T03:02:49;3.88;;;1.58;;
7295;SDS011;40758;54.038;11.684;2024-02-14T03:05:17;8.20;;;4.95;;
7295;SDS011;40758;54.038;11.684;2024-02-14T03:07:45;5.60;;;2.17;;
7295;SDS011;40758;54.038;11.684;2024-02-14T03:10:16;8.50;;;2.80;;
7295;SDS011;40758;54.038;11.684;2024-02-14T03:12:46;5.07;;;1.33;;
7295;SDS011;40758;54.038;11.684;2024-02-14T03:17:41;6.95;;;2.67;;
7295;SDS011;40758;54.038;11.684;2024-02-14T03:20:08;5.82;;;2.17;;
7295;SDS011;40758;54.038;11.684;2024-02-14T03:22:42;7.43;;;2.40;;
7295;SDS011;40758;54.038;11.684;2024-02-14T03:25:16;7.57;;;5.38;;
7295;SDS011;40758;54.038;11.684;2024-02-14T03:27:43;6.57;;;2.70;;
7295;SDS011;40758;54.038;11.684;2024-02-14T03:30:16;6.18;;;2.67;;
7295;SDS011;40758;54.038;11.684;2024-02-14T03:32:44;8.70;;;2.35;;
7295;SDS011;40758;54.038;11.684;2024-02-14T03:35:13;4.63;;;1.85;;
7295;SDS011;40758;54.038;11.684;2024-02-14T03:37:40;6.03;;;3.40;;
7295;SDS011;40758;54.038;11.684;2024-02-14T03:40:08;6.80;;;2.53;;
7295;SDS011;40758;54.038;11.684;2024-02-14T03:42:36;6.68;;;2.20;;
7295;SDS011;40758;54.038;11.684;2024-02-14T03:45:06;6.60;;;2.33;;
7295;SDS011;40758;54.038;11.684;2024-02-14T03:47:35;5.15;;;2.20;;
7295;SDS011;40758;54.038;11.684;2024-02-14T03:50:10;7.32;;;2.65;;
7295;SDS011;40758;54.038;11.684;2024-02-14T03:52:38;7.53;;;1.70;;
7295;SDS011;40758;54.038;11.684;2024-02-14T03:55:06;6.60;;;1.90;;
7295;SDS011;40758;54.038;11.684;2024-02-14T03:57:35;6.00;;;2.15;;
7295;SDS011;40758;54.038;11.684;2024-02-14T04:00:05;6.35;;;2.28;;
7295;SDS011;40758;54.038;11.684;2024-02-14T04:02:37;7.78;;;3.75;;
7295;SDS011;40758;54.038;11.684;2024-02-14T04:05:07;5.95;;;3.05;;
7295;SDS011;40758;54.038;11.684;2024-02-14T04:07:34;6.32;;;2.15;;
7295;SDS011;40758;54.038;11.684;2024-02-14T04:10:02;7.65;;;2.78;;
7295;SDS011;40758;54.038;11.684;2024-02-14T04:12:29;6.60;;;2.35;;
7295;SDS011;40758;54.038;11.684;2024-02-14T04:14:57;5.50;;;2.83;;
7295;SDS011;40758;54.038;11.684;2024-02-14T04:17:25;8.65;;;5.00;;
7295;SDS011;40758;54.038;11.684;2024-02-14T04:19:51;7.15;;;3.47;;
7295;SDS011;40758;54.038;11.684;2024-02-14T04:22:18;5.25;;;2.35;;
7295;SDS011;40758;54.038;11.684;2024-02-14T04:24:45;6.38;;;2.80;;
7295;SDS011;40758;54.038;11.684;2024-02-14T04:27:12;5.57;;;2.72;;
7295;SDS011;40758;54.038;11.684;2024-02-14T04:29:39;6.07;;;3.13;;
7295;SDS011;40758;54.038;11.684;2024-02-14T04:32:05;6.15;;;2.92;;
7295;SDS011;40758;54.038;11.684;2024-02-14T04:34:32;6.22;;;2.50;;
7295;SDS011;40758;54.038;11.684;2024-02-14T04:36:59;6.80;;;2.25;;
7295;SDS011;40758;54.038;11.684;2024-02-14T04:39:26;9.15;;;6.15;;
7295;SDS011;40758;54.038;11.684;2024-02-14T04:41:55;6.95;;;2.90;;
7295;SDS011;40758;54.038;11.684;2024-02-14T04:44:28;7.20;;;2.53;;
7295;SDS011;40758;54.038;11.684;2024-02-14T04:46:56;6.65;;;3.58;;
7295;SDS011;40758;54.038;11.684;2024-02-14T04:49:26;7.00;;;4.85;;
7295;SDS011;40758;54.038;11.684;2024-02-14T04:51:56;6.22;;;5.30;;
7295;SDS011;40758;54.038;11.684;2024-02-14T04:54:23;5.63;;;2.17;;
7295;SDS011;40758;54.038;11.684;2024-02-14T04:56:52;6.45;;;2.13;;
7295;SDS011;40758;54.038;11.684;2024-02-14T04:59:24;6.07;;;2.53;;
7295;SDS011;40758;54.038;11.684;2024-02-14T05:01:51;5.80;;;3.42;;
7295;SDS011;40758;54.038;11.684;2024-02-14T05:04:20;5.78;;;2.83;;
7295;SDS011;40758;54.038;11.684;2024-02-14T05:06:47;6.68;;;2.63;;
7295;SDS011;40758;54.038;11.684;2024-02-14T05:09:15;7.45;;;2.20;;
7295;SDS011;40758;54.038;11.684;2024-02-14T05:11:42;8.15;;;2.58;;
7295;SDS011;40758;54.038;11.684;2024-02-14T05:14:09;7.63;;;2.63;;
7295;SDS011;40758;54.038;11.684;2024-02-14T05:16:36;7.90;;;3.47;;
7295;SDS011;40758;54.038;11.684;2024-02-14T05:19:05;9.90;;;2.45;;
7295;SDS011;40758;54.038;11.684;2024-02-14T05:21:32;6.60;;;5.80;;
7295;SDS011;40758;54.038;11.684;2024-02-14T05:23:59;5.40;;;2.75;;
7295;SDS011;40758;54.038;11.684;2024-02-14T05:26:26;9.63;;;3.30;;
7295;SDS011;40758;54.038;11.684;2024-02-14T05:28:52;6.82;;;2.88;;
7295;SDS011;40758;54.038;11.684;2024-02-14T05:31:20;5.28;;;2.67;;
7295;SDS011;40758;54.038;11.684;2024-02-14T05:33:47;3.90;;;1.77;;
7295;SDS011;40758;54.038;11.684;2024-02-14T05:36:14;7.45;;;2.90;;
7295;SDS011;40758;54.038;11.684;2024-02-14T05:38:41;10.40;;;5.53;;
7295;SDS011;40758;54.038;11.684;2024-02-14T05:41:08;7.88;;;2.83;;
7295;SDS011;40758;54.038;11.684;2024-02-14T05:43:34;7.68;;;5.97;;
7295;SDS011;40758;54.038;11.684;2024-02-14T05:46:01;6.97;;;3.22;;
7295;SDS011;40758;54.038;11.684;2024-02-14T05:48:28;2.58;;;2.33;;
7295;SDS011;40758;54.038;11.684;2024-02-14T05:50:55;5.97;;;2.95;;
7295;SDS011;40758;54.038;11.684;2024-02-14T05:53:22;6.90;;;2.78;;
7295;SDS011;40758;54.038;11.684;2024-02-14T05:55:49;7.72;;;2.83;;
7295;SDS011;40758;54.038;11.684;2024-02-14T05:58:17;9.02;;;3.38;;
7295;SDS011;40758;54.038;11.684;2024-02-14T06:00:44;8.55;;;3.70;;
7295;SDS011;40758;54.038;11.684;2024-02-14T06:03:11;7.68;;;2.25;;
7295;SDS011;40758;54.038;11.684;2024-02-14T06:05:38;8.57;;;5.13;;
7295;SDS011;40758;54.038;11.684;2024-02-14T06:08:05;6.85;;;3.10;;
7295;SDS011;40758;54.038;11.684;2024-02-14T06:10:32;8.82;;;3.90;;
7295;SDS011;40758;54.038;11.684;2024-02-14T06:13:00;5.82;;;2.65;;
7295;SDS011;40758;54.038;11.684;2024-02-14T06:15:27;12.18;;;3.40;;
7295;SDS011;40758;54.038;11.684;2024-02-14T06:17:54;8.52;;;3.28;;
7295;SDS011;40758;54.038;11.684;2024-02-14T06:20:21;8.45;;;2.88;;
7295;SDS011;40758;54.038;11.684;2024-02-14T06:22:47;7.70;;;3.95;;
7295;SDS011;40758;54.038;11.684;2024-02-14T06:25:27;9.35;;;4.20;;
7295;SDS011;40758;54.038;11.684;2024-02-14T06:27:53;8.05;;;3.63;;
7295;SDS011;40758;54.038;11.684;2024-02-14T06:30:22;9.57;;;4.55;;
7295;SDS011;40758;54.038;11.684;2024-02-14T06:32:51;11.77;;;4.88;;
7295;SDS011;40758;54.038;11.684;2024-02-14T06:35:18;10.23;;;3.85;;
7295;SDS011;40758;54.038;11.684;2024-02-14T06:37:51;7.95;;;2.90;;
7295;SDS011;40758;54.038;11.684;2024-02-14T06:40:29;0.50;;;0.30;;
7295;SDS011;40758;54.038;11.684;2024-02-14T06:42:56;0.40;;;0.20;;
7295;SDS011;40758;54.038;11.684;2024-02-14T06:45:25;1.95;;;1.85;;
7295;SDS011;40758;54.038;11.684;2024-02-14T06:47:54;0.47;;;0.25;;
7295;SDS011;40758;54.038;11.684;2024-02-14T06:50:21;0.50;;;0.28;;
7295;SDS011;40758;54.038;11.684;2024-02-14T06:52:48;0.35;;;0.20;;
7295;SDS011;40758;54.038;11.684;2024-02-14T06:55:15;0.30;;;0.10;;
7295;SDS011;40758;54.038;11.684;2024-02-14T06:57:41;0.47;;;0.22;;
7295;SDS011;40758;54.038;11.684;2024-02-14T07:00:08;0.45;;;0.22;;
7295;SDS011;40758;54.038;11.684;2024-02-14T07:02:35;0.60;;;0.30;;
7295;SDS011;40758;54.038;11.684;2024-02-14T07:05:02;0.40;;;0.22;;
7295;SDS011;40758;54.038;11.684;2024-02-14T07:07:29;0.55;;;0.32;;
7295;SDS011;40758;54.038;11.684;2024-02-14T07:10:02;0.50;;;0.45;;
7295;SDS011;40758;54.038;11.684;2024-02-14T07:12:29;0.40;;;0.20;;
7295;SDS011;40758;54.038;11.684;2024-02-14T07:14:57;0.50;;;0.20;;
7295;SDS011;40758;54.038;11.684;2024-02-14T07:17:24;0.50;;;0.30;;
7295;SDS011;40758;54.038;11.684;2024-02-14T07:19:51;0.57;;;0.30;;
7295;SDS011;40758;54.038;11.684;2024-02-14T07:22:19;0.50;;;0.45;;
7295;SDS011;40758;54.038;11.684;2024-02-14T07:24:49;0.60;;;0.60;;
7295;SDS011;40758;54.038;11.684;2024-02-14T07:27:16;0.50;;;0.28;;
7295;SDS011;40758;54.038;11.684;2024-02-14T07:29:46;0.40;;;0.20;;
7295;SDS011;40758;54.038;11.684;2024-02-14T07:32:13;1.48;;;1.38;;
7295;SDS011;40758;54.038;11.684;2024-02-14T07:34:41;0.68;;;0.52;;
7295;SDS011;40758;54.038;11.684;2024-02-14T07:37:08;0.50;;;0.28;;
7295;SDS011;40758;54.038;11.684;2024-02-14T07:39:38;2.05;;;1.00;;
7295;SDS011;40758;54.038;11.684;2024-02-14T07:42:05;0.60;;;0.52;;
7295;SDS011;40758;54.038;11.684;2024-02-14T07:44:32;0.57;;;0.30;;
7295;SDS011;40758;54.038;11.684;2024-02-14T07:46:59;0.60;;;0.50;;
7295;SDS011;40758;54.038;11.684;2024-02-14T07:49:30;0.77;;;0.77;;
7295;SDS011;40758;54.038;11.684;2024-02-14T07:51:58;0.65;;;0.35;;
7295;SDS011;40758;54.038;11.684;2024-02-14T07:54:25;0.45;;;0.22;;
7295;SDS011;40758;54.038;11.684;2024-02-14T07:56:52;0.80;;;0.63;;
7295;SDS011;40758;54.038;11.684;2024-02-14T07:59:18;0.60;;;0.30;;
7295;SDS011;40758;54.038;11.684;2024-02-14T08:01:47;0.50;;;0.30;;
7295;SDS011;40758;54.038;11.684;2024-02-14T08:04:14;0.63;;;0.32;;
7295;SDS011;40758;54.038;11.684;2024-02-14T08:06:44;0.38;;;0.20;;
7295;SDS011;40758;54.038;11.684;2024-02-14T08:09:13;0.68;;;0.57;;
7295;SDS011;40758;54.038;11.684;2024-02-14T08:11:40;2.67;;;2.58;;
7295;SDS011;40758;54.038;11.684;2024-02-14T08:14:08;0.57;;;0.30;;
7295;SDS011;40758;54.038;11.684;2024-02-14T08:16:35;0.55;;;0.38;;
7295;SDS011;40758;54.038;11.684;2024-02-14T08:19:02;0.70;;;0.43;;
7295;SDS011;40758;54.038;11.684;2024-02-14T08:21:29;0.85;;;0.57;;
7295;SDS011;40758;54.038;11.684;2024-02-14T08:23:58;0.60;;;0.30;;
7295;SDS011;40758;54.038;11.684;2024-02-14T08:26:27;0.70;;;0.50;;
7295;SDS011;40758;54.038;11.684;2024-02-14T08:28:54;0.80;;;0.50;;
7295;SDS011;40758;54.038;11.684;2024-02-14T08:31:21;0.52;;;0.30;;
7295;SDS011;40758;54.038;11.684;2024-02-14T08:33:48;0.65;;;0.52;;
7295;SDS011;40758;54.038;11.684;2024-02-14T08:36:15;0.35;;;0.20;;
7295;SDS011;40758;54.038;11.684;2024-02-14T08:38:51;0.70;;;0.50;;
7295;SDS011;40758;54.038;11.684;2024-02-14T08:41:18;0.63;;;0.43;;
7295;SDS011;40758;54.038;11.684;2024-02-14T08:43:45;0.50;;;0.30;;
7295;SDS011;40758;54.038;11.684;2024-02-14T08:46:13;0.80;;;0.70;;
7295;SDS011;40758;54.038;11.684;2024-02-14T08:48:41;0.63;;;0.57;;
7295;SDS011;40758;54.038;11.684;2024-02-14T08:51:18;1.35;;;1.25;;
7295;SDS011;40758;54.038;11.684;2024-02-14T08:53:48;1.27;;;1.27;;
7295;SDS011;40758;54.038;11.684;2024-02-14T08:56:17;0.70;;;0.60;;
7295;SDS011;40758;54.038;11.684;2024-02-14T08:58:46;0.65;;;0.30;;
7295;SDS011;40758;54.038;11.684;2024-02-14T09:01:13;0.40;;;0.20;;
7295;SDS011;40758;54.038;11.684;2024-02-14T09:03:42;2.00;;;1.90;;
7295;SDS011;40758;54.038;11.684;2024-02-14T09:06:15;0.60;;;0.30;;
7295;SDS011;40758;54.038;11.684;2024-02-14T09:08:44;0.43;;;0.28;;
7295;SDS011;40758;54.038;11.684;2024-02-14T09:11:11;0.73;;;0.57;;
7295;SDS011;40758;54.038;11.684;2024-02-14T09:13:38;0.52;;;0.30;;
7295;SDS011;40758;54.038;11.684;2024-02-14T09:16:10;0.60;;;0.40;;
7295;SDS011;40758;54.038;11.684;2024-02-14T09:18:38;2.60;;;2.50;;
7295;SDS011;40758;54.038;11.684;2024-02-14T09:21:05;0.50;;;0.30;;
7295;SDS011;40758;54.038;11.684;2024-02-14T09:23:33;0.70;;;0.43;;
7295;SDS011;40758;54.038;11.684;2024-02-14T09:26:00;0.70;;;0.50;;
7295;SDS011;40758;54.038;11.684;2024-02-14T09:28:28;0.60;;;0.45;;
7295;SDS011;40758;54.038;11.684;2024-02-14T09:30:55;0.70;;;0.50;;
7295;SDS011;40758;54.038;11.684;2024-02-14T09:33:23;1.15;;;1.15;;
7295;SDS011;40758;54.038;11.684;2024-02-14T09:35:50;0.60;;;0.30;;
7295;SDS011;40758;54.038;11.684;2024-02-14T09:38:19;0.60;;;0.43;;
7295;SDS011;40758;54.038;11.684;2024-02-14T09:40:46;1.67;;;1.58;;
7295;SDS011;40758;54.038;11.684;2024-02-14T09:43:17;3.28;;;3.10;;
7295;SDS011;40758;54.038;11.684;2024-02-14T09:45:53;0.63;;;0.43;;
7295;SDS011;40758;54.038;11.684;2024-02-14T09:48:20;0.70;;;0.43;;
7295;SDS011;40758;54.038;11.684;2024-02-14T09:50:48;0.70;;;0.68;;
7295;SDS011;40758;54.038;11.684;2024-02-14T09:53:16;0.95;;;0.95;;
7295;SDS011;40758;54.038;11.684;2024-02-14T09:55:45;0.68;;;0.30;;
7295;SDS011;40758;54.038;11.684;2024-02-14T09:58:12;0.57;;;0.32;;
7295;SDS011;40758;54.038;11.684;2024-02-14T10:00:40;0.40;;;0.28;;
7295;SDS011;40758;54.038;11.684;2024-02-14T10:03:09;0.50;;;0.30;;
7295;SDS011;40758;54.038;11.684;2024-02-14T10:05:36;0.68;;;0.50;;
7295;SDS011;40758;54.038;11.684;2024-02-14T10:08:05;0.60;;;0.40;;
7295;SDS011;40758;54.038;11.684;2024-02-14T10:10:32;0.47;;;0.35;;
7295;SDS011;40758;54.038;11.684;2024-02-14T10:13:10;0.52;;;0.38;;
7295;SDS011;40758;54.038;11.684;2024-02-14T10:15:37;0.57;;;0.55;;
7295;SDS011;40758;54.038;11.684;2024-02-14T10:18:03;0.60;;;0.30;;
7295;SDS011;40758;54.038;11.684;2024-02-14T10:20:31;0.63;;;0.43;;
7295;SDS011;40758;54.038;11.684;2024-02-14T10:23:00;1.10;;;1.05;;
7295;SDS011;40758;54.038;11.684;2024-02-14T10:25:30;0.65;;;0.30;;
7295;SDS011;40758;54.038;11.684;2024-02-14T10:28:06;0.50;;;0.30;;
7295;SDS011;40758;54.038;11.684;2024-02-14T10:30:37;1.42;;;1.33;;
7295;SDS011;40758;54.038;11.684;2024-02-14T10:33:07;0.40;;;0.20;;
7295;SDS011;40758;54.038;11.684;2024-02-14T10:35:50;0.75;;;0.55;;
7295;SDS011;40758;54.038;11.684;2024-02-14T10:38:27;0.70;;;0.32;;
7295;SDS011;40758;54.038;11.684;2024-02-14T10:41:00;1.00;;;0.90;;
7295;SDS011;40758;54.038;11.684;2024-02-14T10:43:33;0.50;;;0.38;;
7295;SDS011;40758;54.038;11.684;2024-02-14T10:46:04;0.70;;;0.40;;
7295;SDS011;40758;54.038;11.684;2024-02-14T10:48:38;0.50;;;0.30;;
7295;SDS011;40758;54.038;11.684;2024-02-14T10:51:15;0.60;;;0.50;;
7295;SDS011;40758;54.038;11.684;2024-02-14T10:53:49;0.80;;;0.80;;
7295;SDS011;40758;54.038;11.684;2024-02-14T10:56:41;0.60;;;0.52;;
7295;SDS011;40758;54.038;11.684;2024-02-14T10:59:16;0.30;;;0.10;;
7295;SDS011;40758;54.038;11.684;2024-02-14T11:01:50;0.50;;;0.30;;
7295;SDS011;40758;54.038;11.684;2024-02-14T11:04:30;0.50;;;0.30;;
7295;SDS011;40758;54.038;11.684;2024-02-14T11:06:58;2.95;;;2.85;;
7295;SDS011;40758;54.038;11.684;2024-02-14T11:09:42;0.63;;;0.63;;
7295;SDS011;40758;54.038;11.684;2024-02-14T11:12:12;0.68;;;0.52;;
7295;SDS011;40758;54.038;11.684;2024-02-14T11:14:42;0.40;;;0.20;;
7295;SDS011;40758;54.038;11.684;2024-02-14T11:17:19;0.63;;;0.30;;
7295;SDS011;40758;54.038;11.684;2024-02-14T11:20:11;0.50;;;0.30;;
7295;SDS011;40758;54.038;11.684;2024-02-14T11:23:00;0.40;;;0.20;;
7295;SDS011;40758;54.038;11.684;2024-02-14T11:26:05;0.52;;;0.30;;
7295;SDS011;40758;54.038;11.684;2024-02-14T11:34:05;0.55;;;0.30;;
7295;SDS011;40758;54.038;11.684;2024-02-14T11:36:34;0.55;;;0.30;;
7295;SDS011;40758;54.038;11.684;2024-02-14T11:39:03;0.50;;;0.30;;
7295;SDS011;40758;54.038;11.684;2024-02-14T11:41:34;2.33;;;2.22;;
7295;SDS011;40758;54.038;11.684;2024-02-14T11:44:03;2.45;;;2.35;;
7295;SDS011;40758;54.038;11.684;2024-02-14T11:46:43;1.98;;;1.88;;
7295;SDS011;40758;54.038;11.684;2024-02-14T11:49:15;3.13;;;3.03;;
7295;SDS011;40758;54.038;11.684;2024-02-14T11:51:45;0.40;;;0.20;;
7295;SDS011;40758;54.038;11.684;2024-02-14T11:54:19;0.68;;;0.50;;
7295;SDS011;40758;54.038;11.684;2024-02-14T11:56:51;1.38;;;1.33;;
7295;SDS011;40758;54.038;11.684;2024-02-14T11:59:18;0.52;;;0.28;;
7295;SDS011;40758;54.038;11.684;2024-02-14T12:01:49;0.50;;;0.30;;
7295;SDS011;40758;54.038;11.684;2024-02-14T12:04:17;0.47;;;0.30;;
7295;SDS011;40758;54.038;11.684;2024-02-14T12:06:45;0.57;;;0.30;;
7295;SDS011;40758;54.038;11.684;2024-02-14T12:09:17;0.60;;;0.35;;
7295;SDS011;40758;54.038;11.684;2024-02-14T12:11:50;0.43;;;0.22;;
7295;SDS011;40758;54.038;11.684;2024-02-14T12:14:28;0.50;;;0.30;;
7295;SDS011;40758;54.038;11.684;2024-02-14T12:17:16;0.57;;;0.30;;
7295;SDS011;40758;54.038;11.684;2024-02-14T12:20:08;1.10;;;1.00;;
7295;SDS011;40758;54.038;11.684;2024-02-14T12:25:48;0.75;;;0.65;;
7295;SDS011;40758;54.038;11.684;2024-02-14T12:28:17;2.03;;;1.92;;
7295;SDS011;40758;54.038;11.684;2024-02-14T12:30:51;0.65;;;0.43;;
7295;SDS011;40758;54.038;11.684;2024-02-14T12:33:25;0.60;;;0.30;;
7295;SDS011;40758;54.038;11.684;2024-02-14T12:36:05;0.70;;;0.70;;
7295;SDS011;40758;54.038;11.684;2024-02-14T12:38:40;0.55;;;0.38;;
7295;SDS011;40758;54.038;11.684;2024-02-14T12:41:12;0.50;;;0.30;;
7295;SDS011;40758;54.038;11.684;2024-02-14T12:43:39;0.40;;;0.20;;
7295;SDS011;40758;54.038;11.684;2024-02-14T12:46:13;0.75;;;0.55;;
7295;SDS011;40758;54.038;11.684;2024-02-14T12:48:46;0.68;;;0.40;;
7295;SDS011;40758;54.038;11.684;2024-02-14T12:51:20;0.60;;;0.40;;
7295;SDS011;40758;54.038;11.684;2024-02-14T12:53:51;0.50;;;0.30;;
7295;SDS011;40758;54.038;11.684;2024-02-14T12:56:21;0.50;;;0.30;;
7295;SDS011;40758;54.038;11.684;2024-02-14T12:58:53;0.50;;;0.30;;
7295;SDS011;40758;54.038;11.684;2024-02-14T13:01:25;0.60;;;0.45;;
7295;SDS011;40758;54.038;11.684;2024-02-14T13:03:57;0.57;;;0.45;;
7295;SDS011;40758;54.038;11.684;2024-02-14T13:06:39;0.50;;;0.50;;
7295;SDS011;40758;54.038;11.684;2024-02-14T13:09:08;0.63;;;0.32;;
7295;SDS011;40758;54.038;11.684;2024-02-14T13:11:42;0.50;;;0.40;;
7295;SDS011;40758;54.038;11.684;2024-02-14T13:14:42;0.65;;;0.43;;
7295;SDS011;40758;54.038;11.684;2024-02-14T13:17:17;0.50;;;0.30;;
7295;SDS011;40758;54.038;11.684;2024-02-14T13:23:07;0.60;;;0.30;;
7295;SDS011;40758;54.038;11.684;2024-02-14T13:25:41;0.40;;;0.20;;
7295;SDS011;40758;54.038;11.684;2024-02-14T13:28:12;0.50;;;0.30;;
7295;SDS011;40758;54.038;11.684;2024-02-14T13:30:52;0.60;;;0.30;;
7295;SDS011;40758;54.038;11.684;2024-02-14T13:33:25;2.05;;;1.95;;
7295;SDS011;40758;54.038;11.684;2024-02-14T13:35:52;0.30;;;0.20;;
7295;SDS011;40758;54.038;11.684;2024-02-14T13:38:26;0.60;;;0.30;;
7295;SDS011;40758;54.038;11.684;2024-02-14T13:41:04;1.55;;;1.45;;
7295;SDS011;40758;54.038;11.684;2024-02-14T13:43:34;2.28;;;2.17;;
7295;SDS011;40758;54.038;11.684;2024-02-14T13:49:29;0.63;;;0.40;;
7295;SDS011;40758;54.038;11.684;2024-02-14T13:52:02;0.60;;;0.32;;
7295;SDS011;40758;54.038;11.684;2024-02-14T13:54:39;0.50;;;0.30;;
7295;SDS011;40758;54.038;11.684;2024-02-14T13:57:14;0.40;;;0.20;;
7295;SDS011;40758;54.038;11.684;2024-02-14T13:59:46;0.60;;;0.30;;
7295;SDS011;40758;54.038;11.684;2024-02-14T14:02:19;0.40;;;0.20;;
7295;SDS011;40758;54.038;11.684;2024-02-14T14:04:51;0.75;;;0.75;;
7295;SDS011;40758;54.038;11.684;2024-02-14T14:07:23;0.80;;;0.75;;
7295;SDS011;40758;54.038;11.684;2024-02-14T14:10:25;0.50;;;0.30;;
7295;SDS011;40758;54.038;11.684;2024-02-14T14:12:57;0.50;;;0.22;;
7295;SDS011;40758;54.038;11.684;2024-02-14T14:15:27;0.60;;;0.60;;
7295;SDS011;40758;54.038;11.684;2024-02-14T14:17:55;1.13;;;0.98;;
7295;SDS011;40758;54.038;11.684;2024-02-14T14:20:29;0.57;;;0.30;;
7295;SDS011;40758;54.038;11.684;2024-02-14T14:23:07;0.60;;;0.30;;
7295;SDS011;40758;54.038;11.684;2024-02-14T14:25:49;0.55;;;0.32;;
7295;SDS011;40758;54.038;11.684;2024-02-14T14:28:23;0.45;;;0.20;;
7295;SDS011;40758;54.038;11.684;2024-02-14T14:30:52;0.50;;;0.30;;
7295;SDS011;40758;54.038;11.684;2024-02-14T14:33:51;0.50;;;0.30;;
7295;SDS011;40758;54.038;11.684;2024-02-14T14:36:28;0.60;;;0.40;;
7295;SDS011;40758;54.038;11.684;2024-02-14T14:38:55;1.90;;;1.80;;
7295;SDS011;40758;54.038;11.684;2024-02-14T14:41:29;0.47;;;0.22;;
7295;SDS011;40758;54.038;11.684;2024-02-14T14:44:01;0.60;;;0.40;;
7295;SDS011;40758;54.038;11.684;2024-02-14T14:46:35;2.47;;;2.38;;
7295;SDS011;40758;54.038;11.684;2024-02-14T14:49:08;1.85;;;1.75;;
7295;SDS011;40758;54.038;11.684;2024-02-14T14:51:37;0.50;;;0.30;;
7295;SDS011;40758;54.038;11.684;2024-02-14T14:54:04;0.45;;;0.20;;
7295;SDS011;40758;54.038;11.684;2024-02-14T14:56:31;0.50;;;0.25;;
7295;SDS011;40758;54.038;11.684;2024-02-14T14:59:00;0.50;;;0.30;;
7295;SDS011;40758;54.038;11.684;2024-02-14T15:01:29;2.63;;;2.53;;
7295;SDS011;40758;54.038;11.684;2024-02-14T15:03:57;0.80;;;0.50;;
7295;SDS011;40758;54.038;11.684;2024-02-14T15:06:24;0.60;;;0.40;;
7295;SDS011;40758;54.038;11.684;2024-02-14T15:08:51;1.58;;;1.48;;
7295;SDS011;40758;54.038;11.684;2024-02-14T15:11:18;0.50;;;0.30;;
7295;SDS011;40758;54.038;11.684;2024-02-14T15:13:47;0.70;;;0.60;;
7295;SDS011;40758;54.038;11.684;2024-02-14T15:16:14;0.52;;;0.30;;
7295;SDS011;40758;54.038;11.684;2024-02-14T15:18:41;0.52;;;0.38;;
7295;SDS011;40758;54.038;11.684;2024-02-14T15:21:11;0.43;;;0.20;;
7295;SDS011;40758;54.038;11.684;2024-02-14T15:23:40;0.47;;;0.28;;